Time,TemperatureF,DewpointF,PressureIn,WindDirection,WindDirectionDegrees,WindSpeedMPH,WindSpeedGustMPH,Humidity,HourlyPrecipIn,Conditions,Clouds,dailyrainin,SoftwareType,DateUTC
2013-03-03 08:32:00,55.0,33.0,29.96,SSE,165,0.0,0.0,44,0.00,,,0.00,,2013-03-03 15:32:00,
2013-03-03 08:42:00,55.0,33.0,29.96,SSE,165,0.0,0.0,44,0.00,,,0.00,,2013-03-03 15:42:00,
2013-03-03 08:52:00,57.0,35.0,29.96,SSE,165,0.0,0.0,43,0.00,,,0.00,,2013-03-03 15:52:00,
2013-03-03 09:01:00,57.0,34.0,29.96,SSE,165,0.0,0.0,41,0.00,,,0.00,,2013-03-03 16:01:00,
2013-03-03 09:11:00,57.0,34.0,29.96,SSE,165,0.0,0.0,41,0.00,,,0.00,,2013-03-03 16:11:00,
2013-03-03 09:21:00,58.0,36.0,29.97,SSE,164,0.0,0.0,43,0.00,,,0.00,,2013-03-03 16:21:00,
2013-03-03 09:31:00,59.0,38.0,29.97,SSE,165,0.0,0.0,46,0.00,,,0.00,,2013-03-03 16:31:00,
2013-03-03 09:41:00,59.0,38.0,29.97,SSE,165,0.0,0.0,46,0.00,,,0.00,,2013-03-03 16:41:00,
2013-03-03 09:52:00,60.0,39.0,29.97,SSE,164,0.0,1.0,46,0.00,,,0.00,,2013-03-03 16:52:00,
2013-03-03 10:01:00,61.0,40.0,29.97,SSE,150,0.0,0.0,46,0.00,,,0.00,,2013-03-03 17:01:00,
2013-03-03 10:11:00,63.0,38.0,29.96,SE,138,0.0,1.0,40,0.00,,,0.00,,2013-03-03 17:11:00,
2013-03-03 10:21:00,63.0,38.0,29.96,SE,138,0.0,1.0,40,0.00,,,0.00,,2013-03-03 17:21:00,
2013-03-03 10:32:00,65.0,38.0,29.97,SE,137,0.0,0.0,37,0.00,,,0.00,,2013-03-03 17:32:00,
2013-03-03 10:41:00,65.0,38.0,29.97,SE,137,0.0,0.0,37,0.00,,,0.00,,2013-03-03 17:41:00,
2013-03-03 10:52:00,67.0,40.0,29.96,SE,138,0.0,0.0,37,0.00,,,0.00,,2013-03-03 17:52:00,
2013-03-03 11:01:00,68.0,39.0,29.96,SE,138,0.0,0.0,35,0.00,,,0.00,,2013-03-03 18:01:00,
2013-03-03 11:11:00,68.0,39.0,29.96,SE,138,0.0,0.0,35,0.00,,,0.00,,2013-03-03 18:11:00,
2013-03-03 11:21:00,68.0,40.0,29.97,SW,230,1.0,3.0,36,0.00,,,0.00,,2013-03-03 18:21:00,
2013-03-03 11:31:00,69.0,37.0,29.97,SW,230,0.0,2.0,31,0.00,,,0.00,,2013-03-03 18:31:00,
2013-03-03 11:41:00,69.0,37.0,29.97,SW,230,0.0,2.0,31,0.00,,,0.00,,2013-03-03 18:41:00,
2013-03-03 11:52:00,69.0,43.0,29.97,West,265,0.0,1.0,39,0.00,,,0.00,,2013-03-03 18:52:00,
2013-03-03 12:01:00,69.0,42.0,29.97,West,269,1.0,3.0,38,0.00,,,0.00,,2013-03-03 19:01:00,
2013-03-03 12:11:00,69.0,42.0,29.95,West,270,0.0,0.0,37,0.00,,,0.00,,2013-03-03 19:11:00,
2013-03-03 12:21:00,69.0,42.0,29.95,West,270,0.0,0.0,37,0.00,,,0.00,,2013-03-03 19:21:00,
2013-03-03 12:31:00,70.0,41.0,29.95,West,270,0.0,1.0,35,0.00,,,0.00,,2013-03-03 19:31:00,
2013-03-03 12:42:00,70.0,41.0,29.95,West,270,0.0,1.0,35,0.00,,,0.00,,2013-03-03 19:42:00,
2013-03-03 12:52:00,73.0,41.0,29.94,West,270,0.0,0.0,32,0.00,,,0.00,,2013-03-03 19:52:00,
2013-03-03 13:01:00,74.0,41.0,29.94,West,270,0.0,1.0,31,0.00,,,0.00,,2013-03-03 20:01:00,
2013-03-03 13:11:00,74.0,41.0,29.94,West,270,0.0,1.0,31,0.00,,,0.00,,2013-03-03 20:11:00,
2013-03-03 13:21:00,74.0,45.0,29.92,WSW,256,0.0,0.0,35,0.00,,,0.00,,2013-03-03 20:21:00,
2013-03-03 13:31:00,76.0,40.0,29.92,SW,221,0.0,5.0,27,0.00,,,0.00,,2013-03-03 20:31:00,
2013-03-03 13:42:00,76.0,40.0,29.92,SW,221,0.0,5.0,27,0.00,,,0.00,,2013-03-03 20:42:00,
2013-03-03 13:52:00,77.0,36.0,29.92,WSW,238,2.0,6.0,23,0.00,,,0.00,,2013-03-03 20:52:00,
2013-03-03 14:01:00,77.0,36.0,29.92,WSW,238,2.0,6.0,23,0.00,,,0.00,,2013-03-03 21:01:00,
2013-03-03 14:11:00,77.0,36.0,29.92,WSW,238,2.0,6.0,23,0.00,,,0.00,,2013-03-03 21:11:00,
2013-03-03 14:21:00,77.0,36.0,29.92,WSW,238,2.0,6.0,23,0.00,,,0.00,,2013-03-03 21:21:00,
2013-03-03 14:31:00,79.0,36.0,29.90,SSW,200,0.0,5.0,21,0.00,,,0.00,,2013-03-03 21:31:00,
2013-03-03 14:42:00,79.0,36.0,29.90,SSW,200,0.0,5.0,21,0.00,,,0.00,,2013-03-03 21:42:00,
2013-03-03 14:52:00,79.0,32.0,29.89,SSW,213,1.0,6.0,18,0.00,,,0.00,,2013-03-03 21:52:00,
2013-03-03 15:01:00,79.0,33.0,29.89,WSW,238,0.0,6.0,19,0.00,,,0.00,,2013-03-03 22:01:00,
2013-03-03 15:11:00,79.0,33.0,29.89,WSW,238,0.0,6.0,19,0.00,,,0.00,,2013-03-03 22:11:00,
2013-03-03 15:21:00,79.0,33.0,29.87,SSE,157,0.0,3.0,19,0.00,,,0.00,,2013-03-03 22:21:00,
2013-03-03 15:31:00,80.0,33.0,29.87,SSW,206,0.0,3.0,18,0.00,,,0.00,,2013-03-03 22:31:00,
2013-03-03 15:41:00,80.0,33.0,29.87,SSW,206,0.0,3.0,18,0.00,,,0.00,,2013-03-03 22:41:00,
2013-03-03 15:52:00,80.0,33.0,29.87,SW,223,2.0,6.0,18,0.00,,,0.00,,2013-03-03 22:52:00,
2013-03-03 16:01:00,80.0,33.0,29.87,SW,223,2.0,6.0,18,0.00,,,0.00,,2013-03-03 23:01:00,
2013-03-03 16:11:00,80.0,33.0,29.87,SW,223,2.0,6.0,18,0.00,,,0.00,,2013-03-03 23:11:00,
2013-03-03 16:21:00,80.0,34.0,29.87,West,264,0.0,6.0,19,0.00,,,0.00,,2013-03-03 23:21:00,
2013-03-03 16:31:00,80.0,35.0,29.87,West,263,1.0,3.0,20,0.00,,,0.00,,2013-03-03 23:31:00,
2013-03-03 16:42:00,80.0,35.0,29.87,West,263,1.0,3.0,20,0.00,,,0.00,,2013-03-03 23:42:00,
2013-03-03 16:52:00,79.0,37.0,29.86,West,262,0.0,1.0,22,0.00,,,0.00,,2013-03-03 23:52:00,
2013-03-03 17:01:00,79.0,37.0,29.86,West,262,0.0,1.0,22,0.00,,,0.00,,2013-03-04 00:01:00,
2013-03-03 17:11:00,79.0,37.0,29.86,West,262,0.0,1.0,22,0.00,,,0.00,,2013-03-04 00:11:00,
2013-03-03 17:21:00,79.0,34.0,29.85,SW,215,0.0,2.0,20,0.00,,,0.00,,2013-03-04 00:21:00,
2013-03-03 17:31:00,78.0,35.0,29.85,SW,214,0.0,2.0,21,0.00,,,0.00,,2013-03-04 00:31:00,
2013-03-03 17:42:00,78.0,35.0,29.85,SW,214,0.0,2.0,21,0.00,,,0.00,,2013-03-04 00:42:00,
2013-03-03 17:52:00,78.0,34.0,29.85,South,178,0.0,3.0,20,0.00,,,0.00,,2013-03-04 00:52:00,
2013-03-03 18:01:00,78.0,34.0,29.84,SSE,148,1.0,5.0,20,0.00,,,0.00,,2013-03-04 01:01:00,
2013-03-03 18:11:00,78.0,34.0,29.84,SSE,148,1.0,5.0,20,0.00,,,0.00,,2013-03-04 01:11:00,
2013-03-03 18:21:00,78.0,35.0,29.84,SSE,168,1.0,3.0,21,0.00,,,0.00,,2013-03-04 01:21:00,
2013-03-03 18:31:00,78.0,32.0,29.84,South,172,0.0,3.0,19,0.00,,,0.00,,2013-03-04 01:31:00,
2013-03-03 18:41:00,78.0,32.0,29.84,South,172,0.0,3.0,19,0.00,,,0.00,,2013-03-04 01:41:00,
2013-03-03 18:51:00,78.0,32.0,29.85,South,173,0.0,1.0,19,0.00,,,0.00,,2013-03-04 01:51:00,
2013-03-03 19:01:00,77.0,32.0,29.83,South,170,0.0,3.0,19,0.00,,,0.00,,2013-03-04 02:01:00,
2013-03-03 19:11:00,76.0,31.0,29.83,South,169,0.0,0.0,19,0.00,,,0.00,,2013-03-04 02:11:00,
2013-03-03 19:22:00,76.0,31.0,29.83,South,169,0.0,0.0,19,0.00,,,0.00,,2013-03-04 02:22:00,
2013-03-03 19:31:00,75.0,31.0,29.83,South,169,0.0,0.0,20,0.00,,,0.00,,2013-03-04 02:31:00,
2013-03-03 19:41:00,75.0,31.0,29.83,South,169,0.0,0.0,20,0.00,,,0.00,,2013-03-04 02:41:00,
2013-03-03 19:52:00,74.0,30.0,29.83,SSE,159,0.0,1.0,20,0.00,,,0.00,,2013-03-04 02:52:00,
2013-03-03 20:01:00,73.0,30.0,29.83,SSE,168,0.0,1.0,20,0.00,,,0.00,,2013-03-04 03:01:00,
2013-03-03 20:11:00,73.0,30.0,29.83,SSE,168,0.0,1.0,20,0.00,,,0.00,,2013-03-04 03:11:00,
2013-03-03 20:21:00,72.0,29.0,29.83,SSE,167,0.0,1.0,20,0.00,,,0.00,,2013-03-04 03:21:00,
2013-03-03 20:31:00,71.0,28.0,29.83,South,179,0.0,1.0,20,0.00,,,0.00,,2013-03-04 03:31:00,
2013-03-03 20:41:00,71.0,28.0,29.83,SSE,165,0.0,5.0,20,0.00,,,0.00,,2013-03-04 03:41:00,
2013-03-03 20:52:00,71.0,28.0,29.83,SSE,165,0.0,5.0,20,0.00,,,0.00,,2013-03-04 03:52:00,
2013-03-03 21:01:00,71.0,28.0,29.83,SSE,154,1.0,5.0,20,0.00,,,0.00,,2013-03-04 04:01:00,
2013-03-03 21:11:00,71.0,28.0,29.83,SSE,154,1.0,5.0,20,0.00,,,0.00,,2013-03-04 04:11:00,
2013-03-03 21:21:00,70.0,28.0,29.82,SSE,150,1.0,7.0,21,0.00,,,0.00,,2013-03-04 04:21:00,
2013-03-03 21:31:00,70.0,29.0,29.82,SE,138,3.0,7.0,22,0.00,,,0.00,,2013-03-04 04:31:00,
2013-03-03 21:41:00,70.0,29.0,29.82,SE,138,3.0,7.0,22,0.00,,,0.00,,2013-03-04 04:41:00,
2013-03-03 21:52:00,69.0,31.0,29.82,South,175,2.0,7.0,24,0.00,,,0.00,,2013-03-04 04:52:00,
2013-03-03 22:01:00,69.0,32.0,29.83,NW,313,0.0,3.0,25,0.00,,,0.00,,2013-03-04 05:01:00,
2013-03-03 22:11:00,69.0,32.0,29.83,NW,313,0.0,3.0,25,0.00,,,0.00,,2013-03-04 05:11:00,
2013-03-03 22:22:00,66.0,36.0,29.84,WNW,290,0.0,1.0,33,0.00,,,0.00,,2013-03-04 05:22:00,
2013-03-03 22:31:00,65.0,35.0,29.85,WNW,290,0.0,0.0,33,0.00,,,0.00,,2013-03-04 05:31:00,
2013-03-03 22:42:00,64.0,36.0,29.85,WNW,290,0.0,0.0,35,0.00,,,0.00,,2013-03-04 05:42:00,
2013-03-03 22:52:00,64.0,36.0,29.85,WNW,290,0.0,0.0,35,0.00,,,0.00,,2013-03-04 05:52:00,
2013-03-03 23:01:00,64.0,36.0,29.85,WNW,290,0.0,0.0,35,0.00,,,0.00,,2013-03-04 06:01:00,
2013-03-03 23:11:00,64.0,36.0,29.85,WNW,290,0.0,0.0,35,0.00,,,0.00,,2013-03-04 06:11:00,
2013-03-03 23:21:00,62.0,34.0,29.85,WNW,290,0.0,0.0,35,0.00,,,0.00,,2013-03-04 06:21:00,
2013-03-03 23:31:00,62.0,35.0,29.84,WNW,290,0.0,0.0,37,0.00,,,0.00,,2013-03-04 06:31:00,
2013-03-03 23:42:00,62.0,35.0,29.84,WNW,290,0.0,0.0,37,0.00,,,0.00,,2013-03-04 06:42:00,
2013-03-03 23:51:00,60.0,34.0,29.84,WNW,290,0.0,0.0,38,0.00,,,0.00,,2013-03-04 06:51:00,